Time;durP1;ratioP1;P1;durP2;ratioP2;P2;SDS_P1;SDS_P2;PMS_P1;PMS_P2;Temp;Humidity;BMP_temperature;BMP_pressure;BME280_temperature;BME280_humidity;BME280_pressure;Samples;Min_cycle;Max_cycle;Signal;HPM_P1;HPM_P2
2023/12/23 00:02:29;;;;;;;6.03;1.50;;;8.70;1.00;;;;;;7378695;19;20940;-71
2023/12/23 00:05:02;;;;;;;4.97;1.65;;;8.60;1.00;;;;;;7379028;19;20509;-72
2023/12/23 00:07:32;;;;;;;5.07;1.27;;;8.60;1.00;;;;;;7373640;19;20006;-71
2023/12/23 00:10:03;;;;;;;4.10;1.52;;;8.60;1.00;;;;;;7380992;19;20056;-71
2023/12/23 00:12:33;;;;;;;5.00;1.45;;;8.60;1.00;;;;;;7377339;19;20018;-71
2023/12/23 00:15:03;;;;;;;7.20;1.73;;;8.50;1.00;;;;;;7380337;19;20018;-71
2023/12/23 00:17:33;;;;;;;6.90;1.75;;;8.40;1.00;;;;;;7377168;19;20478;-71
2023/12/23 00:20:08;;;;;;;6.43;1.83;;;8.30;1.00;;;;;;7379261;19;20355;-71
2023/12/23 00:22:38;;;;;;;6.07;1.38;;;8.30;7.60;;;;;;7375883;19;20028;-72
2023/12/23 00:25:09;;;;;;;5.85;1.80;;;8.30;1.00;;;;;;7379820;19;20006;-72
2023/12/23 00:27:39;;;;;;;5.43;1.80;;;8.40;1.00;;;;;;7379222;19;20472;-72
2023/12/23 00:30:13;;;;;;;5.60;1.65;;;8.30;1.00;;;;;;7380431;19;20539;-72
2023/12/23 00:32:44;;;;;;;5.97;1.83;;;8.30;1.00;;;;;;7377274;19;20044;-70
2023/12/23 00:35:17;;;;;;;5.18;2.10;;;8.30;1.00;;;;;;7379828;19;20023;-71
2023/12/23 00:37:47;;;;;;;7.78;2.05;;;8.30;1.00;;;;;;7376876;19;20011;-71
2023/12/23 00:40:18;;;;;;;4.63;1.75;;;8.20;1.50;;;;;;7379421;19;20089;-71
2023/12/23 00:42:48;;;;;;;7.85;2.13;;;8.20;1.10;;;;;;7378732;19;20014;-72
2023/12/23 00:45:18;;;;;;;9.20;1.90;;;8.20;11.40;;;;;;7378780;19;20022;-71
2023/12/23 00:47:48;;;;;;;3.85;2.05;;;8.10;21.80;;;;;;7377017;19;20348;-72
2023/12/23 00:50:21;;;;;;;8.10;2.17;;;8.10;24.90;;;;;;7377937;19;20021;-70
2023/12/23 00:52:51;;;;;;;5.88;2.20;;;8.10;26.10;;;;;;7378265;19;20010;-71
2023/12/23 00:55:21;;;;;;;7.10;1.98;;;8.10;19.90;;;;;;7377681;19;20022;-71
2023/12/23 00:57:51;;;;;;;7.15;2.47;;;8.10;29.00;;;;;;7376800;19;20010;-71
2023/12/23 01:00:21;;;;;;;5.75;1.88;;;8.00;31.30;;;;;;7378383;19;20006;-71
2023/12/23 01:02:51;;;;;;;6.40;2.13;;;8.00;32.10;;;;;;7378288;19;20825;-71
2023/12/23 01:05:24;;;;;;;10.13;2.08;;;8.00;38.30;;;;;;7377338;19;20049;-70
2023/12/23 01:07:54;;;;;;;9.45;2.15;;;8.00;21.70;;;;;;7378399;19;20014;-70
2023/12/23 01:10:26;;;;;;;5.25;1.90;;;8.00;20.40;;;;;;7378832;19;20024;-71
2023/12/23 01:12:56;;;;;;;5.88;1.90;;;8.10;9.00;;;;;;7378842;19;20013;-71
2023/12/23 01:15:27;;;;;;;8.20;2.53;;;8.10;5.60;;;;;;7378633;19;20047;-71
2023/12/23 01:17:57;;;;;;;6.05;1.88;;;8.10;4.40;;;;;;7378145;19;20003;-70
2023/12/23 01:20:30;;;;;;;7.18;2.17;;;8.10;1.00;;;;;;7377953;19;20123;-70
2023/12/23 01:23:00;;;;;;;5.82;1.92;;;8.20;1.00;;;;;;7379090;19;20010;-70
2023/12/23 01:25:30;;;;;;;10.40;2.30;;;8.20;1.00;;;;;;7377007;19;20083;-70
2023/12/23 01:28:04;;;;;;;5.78;1.92;;;8.30;1.00;;;;;;7377303;19;20007;-71
2023/12/23 01:30:34;;;;;;;4.80;1.63;;;8.20;1.00;;;;;;7378199;19;20040;-70
2023/12/23 01:33:05;;;;;;;5.55;1.73;;;8.30;1.00;;;;;;7378933;19;20181;-70
2023/12/23 01:35:39;;;;;;;3.42;1.38;;;8.20;1.00;;;;;;7378071;19;20015;-69
2023/12/23 01:38:09;;;;;;;4.75;1.40;;;8.30;1.00;;;;;;7374700;19;20014;-70
2023/12/23 01:40:40;;;;;;;7.95;1.83;;;8.20;1.00;;;;;;7368817;19;20554;-71
2023/12/23 01:43:10;;;;;;;4.82;1.77;;;8.20;1.00;;;;;;7377647;19;20019;-70
2023/12/23 01:45:41;;;;;;;6.47;1.98;;;8.20;1.00;;;;;;7374618;19;20006;-70
2023/12/23 01:48:13;;;;;;;4.50;1.63;;;8.20;1.00;;;;;;7375219;19;20010;-71
2023/12/23 01:50:46;;;;;;;8.30;2.15;;;8.20;1.00;;;;;;7376414;19;20018;-70
2023/12/23 01:53:16;;;;;;;5.38;1.90;;;8.20;1.00;;;;;;7377379;19;20017;-71
2023/12/23 01:55:46;;;;;;;5.88;1.90;;;8.20;1.00;;;;;;7382762;19;20014;-71
2023/12/23 01:58:17;;;;;;;5.22;1.98;;;8.20;1.00;;;;;;7384010;19;20015;-72
2023/12/23 02:00:47;;;;;;;8.23;1.83;;;8.20;1.00;;;;;;7383046;19;20086;-70
2023/12/23 02:03:18;;;;;;;8.05;2.35;;;8.30;1.00;;;;;;7383127;19;20011;-69
2023/12/23 02:05:50;;;;;;;5.78;2.45;;;8.30;1.00;;;;;;7383682;19;20018;-69
2023/12/23 02:08:20;;;;;;;5.15;2.00;;;8.30;1.00;;;;;;7382233;19;20010;-69
2023/12/23 02:10:56;;;;;;;7.75;2.10;;;8.30;1.00;;;;;;7383252;19;20081;-70
2023/12/23 02:13:30;;;;;;;6.20;1.92;;;8.30;1.00;;;;;;7381730;19;20399;-69
2023/12/23 02:16:01;;;;;;;10.00;2.45;;;8.30;1.00;;;;;;7381620;19;20085;-69
2023/12/23 02:18:31;;;;;;;8.60;2.65;;;8.30;1.00;;;;;;7381881;19;20458;-70
2023/12/23 02:21:06;;;;;;;9.85;2.47;;;8.30;1.00;;;;;;7386110;19;20485;-70
2023/12/23 02:23:36;;;;;;;5.68;1.60;;;8.30;1.00;;;;;;7386517;19;20014;-71
2023/12/23 02:26:08;;;;;;;8.70;2.30;;;8.30;1.00;;;;;;7383428;19;20016;-70
2023/12/23 02:28:38;;;;;;;7.10;2.47;;;8.30;1.00;;;;;;7383439;19;20014;-69
2023/12/23 02:31:10;;;;;;;5.43;2.22;;;8.20;1.00;;;;;;7380653;19;20382;-70
2023/12/23 02:33:41;;;;;;;6.28;1.80;;;8.20;1.00;;;;;;7379133;19;20131;-70
2023/12/23 02:36:13;;;;;;;4.22;1.95;;;8.10;1.00;;;;;;7383115;19;20032;-70
2023/12/23 02:38:43;;;;;;;4.78;1.70;;;8.10;1.00;;;;;;7378573;19;20026;-70
2023/12/23 02:41:13;;;;;;;5.07;2.15;;;8.00;1.00;;;;;;7382647;19;20467;-71
2023/12/23 02:43:43;;;;;;;8.98;2.78;;;8.10;1.00;;;;;;7381110;19;20534;-70
2023/12/23 02:46:14;;;;;;;5.43;2.20;;;8.10;1.00;;;;;;7381911;19;20014;-71
2023/12/23 02:48:44;;;;;;;6.97;2.22;;;8.10;1.00;;;;;;7379505;19;20010;-70
2023/12/23 02:51:16;;;;;;;5.80;1.70;;;8.20;1.00;;;;;;7381907;19;20493;-70
2023/12/23 02:53:46;;;;;;;7.70;2.30;;;8.20;1.00;;;;;;7381304;19;20402;-70
2023/12/23 02:56:16;;;;;;;4.45;2.00;;;8.20;1.00;;;;;;7381741;19;20015;-69
2023/12/23 02:58:46;;;;;;;5.32;1.88;;;8.30;1.00;;;;;;7381410;19;20026;-70
2023/12/23 03:01:16;;;;;;;7.30;1.95;;;8.30;1.00;;;;;;7382622;19;20043;-70
2023/12/23 03:03:46;;;;;;;14.10;2.63;;;8.30;1.00;;;;;;7381355;19;20011;-70
2023/12/23 03:06:19;;;;;;;7.93;1.90;;;8.30;1.00;;;;;;7376894;19;20011;-70
2023/12/23 03:08:49;;;;;;;7.40;1.88;;;8.30;1.00;;;;;;7380897;19;20149;-70
2023/12/23 03:11:19;;;;;;;6.50;2.00;;;8.30;1.00;;;;;;7381512;19;20445;-69
2023/12/23 03:13:51;;;;;;;4.78;1.80;;;8.30;1.00;;;;;;7381932;19;20427;-69
2023/12/23 03:16:23;;;;;;;5.35;1.88;;;8.30;1.00;;;;;;7382321;19;20014;-70
2023/12/23 03:18:53;;;;;;;5.28;2.20;;;8.30;1.00;;;;;;7380057;19;20010;-70
2023/12/23 03:21:25;;;;;;;10.93;2.60;;;8.30;1.00;;;;;;7382474;19;20010;-69
2023/12/23 03:23:55;;;;;;;4.68;1.58;;;8.30;1.00;;;;;;7380360;19;20356;-70
2023/12/23 03:26:28;;;;;;;3.83;1.75;;;8.30;1.00;;;;;;7378662;19;20081;-70
2023/12/23 03:28:58;;;;;;;6.60;1.98;;;8.30;1.00;;;;;;7378523;19;20019;-70
2023/12/23 03:31:28;;;;;;;6.75;2.10;;;8.20;1.00;;;;;;7380996;19;20043;-69
2023/12/23 03:33:58;;;;;;;6.10;1.88;;;8.20;1.00;;;;;;7379907;19;20389;-70
2023/12/23 03:36:31;;;;;;;6.15;2.00;;;8.20;1.00;;;;;;7379724;19;20010;-70
2023/12/23 03:39:02;;;;;;;4.90;1.52;;;8.20;1.00;;;;;;7378856;19;20029;-70
2023/12/23 03:41:32;;;;;;;6.72;1.80;;;8.30;1.00;;;;;;7381051;19;20007;-70
2023/12/23 03:44:02;;;;;;;3.40;1.58;;;8.30;1.00;;;;;;7379087;19;20010;-70
2023/12/23 03:46:32;;;;;;;6.07;1.90;;;8.30;1.00;;;;;;7379804;19;20014;-69
2023/12/23 03:49:02;;;;;;;5.93;1.67;;;8.30;1.00;;;;;;7377822;19;20021;-70
2023/12/23 03:51:35;;;;;;;5.15;1.70;;;8.30;1.00;;;;;;7379056;19;20018;-70
2023/12/23 03:54:05;;;;;;;4.00;1.58;;;8.30;1.00;;;;;;7379983;19;20014;-69
2023/12/23 03:56:35;;;;;;;2.85;1.35;;;8.30;1.00;;;;;;7379980;19;20021;-70
2023/12/23 03:59:05;;;;;;;5.18;1.67;;;8.30;1.00;;;;;;7378484;19;20025;-70
2023/12/23 04:01:36;;;;;;;3.90;1.65;;;8.30;1.00;;;;;;7375187;19;20503;-71
2023/12/23 04:04:06;;;;;;;8.43;2.28;;;8.30;1.00;;;;;;7377390;19;20511;-70
2023/12/23 04:06:39;;;;;;;5.20;2.00;;;8.20;1.00;;;;;;7377606;19;20006;-70
2023/12/23 04:09:10;;;;;;;5.50;2.05;;;8.20;1.00;;;;;;7376971;19;20024;-70
2023/12/23 04:11:40;;;;;;;7.00;1.60;;;8.30;1.00;;;;;;7378830;19;20006;-70
2023/12/23 04:14:10;;;;;;;4.13;2.03;;;8.20;1.00;;;;;;7377246;19;20020;-69
2023/12/23 04:16:41;;;;;;;4.95;1.85;;;8.20;1.00;;;;;;7376117;19;20010;-70
2023/12/23 04:19:11;;;;;;;6.40;2.15;;;8.20;1.00;;;;;;7376237;19;20049;-71
2023/12/23 04:21:44;;;;;;;5.93;1.67;;;8.20;1.00;;;;;;7376801;19;20022;-70
2023/12/23 04:24:14;;;;;;;5.47;2.00;;;8.30;1.00;;;;;;7378895;19;20337;-70
2023/12/23 04:26:45;;;;;;;3.60;1.60;;;8.40;1.00;;;;;;7378780;19;20017;-69
2023/12/23 04:29:14;;;;;;;3.75;1.30;;;8.30;1.00;;;;;;7377811;19;20010;-69
2023/12/23 04:31:45;;;;;;;4.20;1.50;;;8.30;1.00;;;;;;7377078;19;20401;-70
2023/12/23 04:34:15;;;;;;;3.95;1.70;;;8.40;1.00;;;;;;7377231;19;20010;-70
2023/12/23 04:36:48;;;;;;;5.82;1.65;;;8.50;1.00;;;;;;7377934;19;20011;-70
2023/12/23 04:39:18;;;;;;;3.33;1.73;;;8.40;1.00;;;;;;7378956;19;20691;-70
2023/12/23 04:41:49;;;;;;;3.85;1.70;;;8.40;1.00;;;;;;7378431;19;20030;-70
2023/12/23 04:44:20;;;;;;;4.00;1.30;;;8.40;1.00;;;;;;7374434;19;20085;-70
2023/12/23 04:46:53;;;;;;;2.05;1.10;;;8.40;1.00;;;;;;7377679;19;20006;-70
2023/12/23 04:49:24;;;;;;;3.63;1.40;;;8.40;1.00;;;;;;7376596;19;20014;-70
2023/12/23 04:51:57;;;;;;;2.03;1.20;;;8.50;1.00;;;;;;7378978;19;20010;-69
2023/12/23 04:54:27;;;;;;;3.20;1.40;;;8.50;1.00;;;;;;7376626;19;20021;-70
2023/12/23 04:56:57;;;;;;;5.97;1.38;;;8.40;1.00;;;;;;7375074;19;20013;-70
2023/12/23 04:59:27;;;;;;;5.32;1.30;;;8.40;1.00;;;;;;7375073;19;20014;-71
2023/12/23 05:01:57;;;;;;;3.47;1.70;;;8.50;1.00;;;;;;7375824;19;20078;-69
2023/12/23 05:04:28;;;;;;;2.67;1.40;;;8.50;1.00;;;;;;7375112;19;20013;-69
2023/12/23 05:07:01;;;;;;;3.30;1.30;;;8.50;1.00;;;;;;7377152;19;20010;-69
2023/12/23 05:09:31;;;;;;;2.22;1.17;;;8.50;1.00;;;;;;7373857;19;20023;-69
2023/12/23 05:12:01;;;;;;;4.15;1.73;;;8.40;1.00;;;;;;7376067;19;20027;-69
2023/12/23 05:14:31;;;;;;;4.88;1.52;;;8.40;1.00;;;;;;7374892;19;20015;-70
2023/12/23 05:17:02;;;;;;;2.30;1.30;;;8.40;1.00;;;;;;7373729;19;20011;-69
2023/12/23 05:19:32;;;;;;;4.35;1.10;;;8.50;1.00;;;;;;7373581;19;20544;-70
2023/12/23 05:22:07;;;;;;;2.97;1.00;;;8.40;1.00;;;;;;7375897;19;20050;-70
2023/12/23 05:24:39;;;;;;;2.15;0.93;;;8.40;1.00;;;;;;7375939;19;20074;-70
2023/12/23 05:27:09;;;;;;;4.75;1.45;;;8.50;1.00;;;;;;7375851;19;20062;-71
2023/12/23 05:29:39;;;;;;;3.13;0.95;;;8.60;1.00;;;;;;7378913;19;20012;-70
2023/12/23 05:32:09;;;;;;;3.42;1.10;;;8.50;1.00;;;;;;7384198;19;20014;-69
2023/12/23 05:34:39;;;;;;;3.88;0.95;;;8.50;1.00;;;;;;7383028;19;20018;-70
2023/12/23 05:37:12;;;;;;;1.30;0.65;;;8.50;1.00;;;;;;7383798;19;20015;-70
2023/12/23 05:39:47;;;;;;;2.35;1.20;;;8.50;1.00;;;;;;7383117;19;20056;-70
2023/12/23 05:42:17;;;;;;;2.28;0.90;;;8.50;1.00;;;;;;7382687;19;20373;-69
2023/12/23 05:44:47;;;;;;;0.90;0.57;;;8.50;1.00;;;;;;7382553;19;20017;-68
2023/12/23 05:47:17;;;;;;;2.45;0.60;;;8.50;1.00;;;;;;7382137;19;20144;-70
2023/12/23 05:49:48;;;;;;;1.10;0.50;;;8.50;1.00;;;;;;7382637;19;20009;-70
2023/12/23 05:52:20;;;;;;;2.17;0.70;;;8.30;1.00;;;;;;7382291;19;20010;-70
2023/12/23 05:54:50;;;;;;;1.58;1.05;;;8.30;1.00;;;;;;7382592;19;20531;-70
2023/12/23 05:57:20;;;;;;;1.00;0.57;;;8.30;1.00;;;;;;7381431;19;20377;-70
2023/12/23 05:59:50;;;;;;;1.90;0.80;;;8.40;1.00;;;;;;7384180;19;20006;-70
2023/12/23 06:02:20;;;;;;;1.08;0.50;;;8.40;1.00;;;;;;7383920;19;20010;-70
2023/12/23 06:04:52;;;;;;;1.00;0.50;;;8.30;1.00;;;;;;7383613;19;20562;-70
2023/12/23 06:07:24;;;;;;;0.90;0.55;;;8.30;1.00;;;;;;7383230;19;20045;-70
2023/12/23 06:09:54;;;;;;;2.28;0.60;;;8.30;1.00;;;;;;7379828;19;20007;-70
2023/12/23 06:12:24;;;;;;;1.48;0.70;;;8.30;1.00;;;;;;7382346;19;20010;-70
2023/12/23 06:14:56;;;;;;;1.42;0.55;;;8.30;1.00;;;;;;7382416;19;20828;-70
2023/12/23 06:17:27;;;;;;;1.58;0.50;;;8.40;1.00;;;;;;7379828;19;20018;-70
2023/12/23 06:19:58;;;;;;;1.50;0.60;;;8.40;1.00;;;;;;7381492;19;20011;-70
2023/12/23 06:22:30;;;;;;;1.83;0.65;;;8.40;1.00;;;;;;7381463;19;20034;-70
2023/12/23 06:25:00;;;;;;;0.73;0.50;;;8.40;1.00;;;;;;7381436;19;20472;-70
2023/12/23 06:27:30;;;;;;;1.13;0.63;;;8.50;1.00;;;;;;7379280;19;20011;-70
2023/12/23 06:30:00;;;;;;;2.45;0.82;;;8.50;1.00;;;;;;7380224;19;20014;-70
2023/12/23 06:32:31;;;;;;;0.80;0.40;;;8.60;1.00;;;;;;7380821;19;20031;-70
2023/12/23 06:35:01;;;;;;;0.50;0.32;;;8.50;1.00;;;;;;7379859;19;20011;-70
2023/12/23 06:37:34;;;;;;;1.45;0.50;;;8.60;1.00;;;;;;7380940;19;20014;-69
2023/12/23 06:40:04;;;;;;;0.68;0.50;;;8.50;1.00;;;;;;7380438;19;20035;-70
2023/12/23 06:42:34;;;;;;;2.38;0.50;;;8.60;1.00;;;;;;7380158;19;20094;-70
2023/12/23 06:45:04;;;;;;;1.30;0.60;;;8.60;1.00;;;;;;7380099;19;20443;-69
2023/12/23 06:47:34;;;;;;;1.63;0.45;;;8.50;1.00;;;;;;7379217;19;20017;-70
2023/12/23 06:50:04;;;;;;;0.65;0.40;;;8.60;1.00;;;;;;7380066;19;20035;-70
2023/12/23 06:52:37;;;;;;;0.70;0.35;;;8.60;1.00;;;;;;7380032;19;20017;-70
2023/12/23 06:55:08;;;;;;;2.50;0.40;;;8.60;1.00;;;;;;7380386;19;20078;-70
2023/12/23 06:57:39;;;;;;;1.27;0.55;;;8.60;1.00;;;;;;7379392;19;20006;-70
2023/12/23 07:00:10;;;;;;;1.27;0.32;;;8.60;1.00;;;;;;7380773;19;20015;-71
2023/12/23 07:02:41;;;;;;;0.95;0.70;;;8.60;1.00;;;;;;7379515;19;20086;-70
2023/12/23 07:05:11;;;;;;;0.70;0.38;;;8.60;1.00;;;;;;7380455;19;20315;-70
2023/12/23 07:07:44;;;;;;;0.60;0.40;;;8.50;1.00;;;;;;7378807;19;20046;-70
2023/12/23 07:10:15;;;;;;;0.88;0.50;;;8.50;1.00;;;;;;7380279;19;20010;-69
2023/12/23 07:12:46;;;;;;;1.27;0.32;;;8.50;1.00;;;;;;7380791;19;20006;-69
2023/12/23 07:15:17;;;;;;;0.63;0.32;;;8.40;1.00;;;;;;7379678;19;20081;-70
2023/12/23 07:17:47;;;;;;;2.08;0.40;;;8.50;1.00;;;;;;7378615;19;20025;-69
2023/12/23 07:20:17;;;;;;;1.00;0.57;;;8.50;1.00;;;;;;7382237;19;20014;-69
2023/12/23 07:22:50;;;;;;;1.42;0.50;;;8.40;1.00;;;;;;7381865;19;20586;-70
2023/12/23 07:25:21;;;;;;;1.73;0.50;;;8.40;1.00;;;;;;7378568;19;20022;-70
2023/12/23 07:27:51;;;;;;;1.15;0.55;;;8.50;1.00;;;;;;7378118;19;20459;-69
2023/12/23 07:30:21;;;;;;;0.90;0.50;;;8.50;1.00;;;;;;7378225;19;20007;-69
2023/12/23 07:32:51;;;;;;;1.00;0.40;;;8.50;1.00;;;;;;7378449;19;20011;-70
2023/12/23 07:35:22;;;;;;;1.15;0.60;;;8.50;1.00;;;;;;7377235;19;20022;-70
2023/12/23 07:37:54;;;;;;;1.60;0.65;;;8.50;1.00;;;;;;7377713;19;20003;-69
2023/12/23 07:40:25;;;;;;;1.58;0.40;;;8.50;1.00;;;;;;7377756;19;20018;-69
2023/12/23 07:42:59;;;;;;;;;;;8.50;1.00;;;;;;7381192;19;20003;-70
2023/12/23 07:45:30;;;;;;;0.40;0.25;;;8.50;1.00;;;;;;7379208;19;20552;-69
2023/12/23 07:48:00;;;;;;;0.40;0.30;;;8.60;1.00;;;;;;7377951;19;20016;-71
2023/12/23 07:50:30;;;;;;;0.40;0.20;;;8.50;1.00;;;;;;7375909;19;20039;-70
2023/12/23 07:53:03;;;;;;;1.23;0.40;;;8.60;1.00;;;;;;7376310;19;20346;-70
2023/12/23 07:55:34;;;;;;;1.02;0.30;;;8.60;1.00;;;;;;7377904;19;20013;-70
2023/12/23 07:58:04;;;;;;;0.70;0.40;;;8.60;1.00;;;;;;7376698;19;20018;-70
2023/12/23 08:00:34;;;;;;;2.38;0.35;;;8.60;1.00;;;;;;7378022;19;20078;-69
2023/12/23 08:03:05;;;;;;;1.55;0.38;;;8.50;1.00;;;;;;7377376;19;20479;-71
2023/12/23 08:05:35;;;;;;;1.45;0.30;;;8.60;1.00;;;;;;7378191;19;20424;-70
2023/12/23 08:08:10;;;;;;;0.75;0.40;;;8.60;1.00;;;;;;7377020;19;20142;-70
2023/12/23 08:10:40;;;;;;;0.90;0.38;;;8.60;1.00;;;;;;7378200;19;20059;-71
2023/12/23 08:13:11;;;;;;;0.50;0.22;;;8.50;1.00;;;;;;7378460;19;20095;-69
2023/12/23 08:15:41;;;;;;;0.70;0.30;;;8.60;1.00;;;;;;7378271;19;20479;-70
2023/12/23 08:18:11;;;;;;;0.68;0.20;;;8.60;1.00;;;;;;7377405;19;20056;-70
2023/12/23 08:20:42;;;;;;;0.40;0.30;;;8.60;1.00;;;;;;7378552;19;20056;-71
2023/12/23 08:23:14;;;;;;;1.30;0.50;;;8.60;1.00;;;;;;7378185;19;20422;-70
2023/12/23 08:25:46;;;;;;;0.70;0.43;;;8.60;1.00;;;;;;7377701;19;20011;-71
2023/12/23 08:28:16;;;;;;;0.93;0.30;;;8.60;1.00;;;;;;7376200;19;20006;-69
2023/12/23 08:30:47;;;;;;;0.50;0.30;;;8.60;1.00;;;;;;7372777;19;20641;-72
2023/12/23 08:33:17;;;;;;;1.67;0.30;;;8.70;1.00;;;;;;7372603;19;20015;-72
2023/12/23 08:35:48;;;;;;;0.25;0.17;;;8.70;1.00;;;;;;7373173;19;21237;-72
2023/12/23 08:38:22;;;;;;;1.90;0.38;;;8.80;1.00;;;;;;7369277;19;20503;-72
2023/12/23 08:40:53;;;;;;;1.35;0.30;;;8.80;1.00;;;;;;7369731;19;20508;-71
2023/12/23 08:43:24;;;;;;;0.50;0.40;;;8.70;1.00;;;;;;7368765;19;20003;-70
2023/12/23 08:45:55;;;;;;;0.30;0.25;;;8.80;1.00;;;;;;7368680;19;20002;-71
2023/12/23 08:48:26;;;;;;;0.93;0.20;;;8.80;1.00;;;;;;7365629;19;20010;-72
2023/12/23 08:50:57;;;;;;;0.65;0.40;;;8.80;1.00;;;;;;7366165;19;20028;-71
2023/12/23 08:53:31;;;;;;;0.55;0.15;;;8.80;1.00;;;;;;7365200;19;20459;-72
2023/12/23 08:56:05;;;;;;;0.88;0.40;;;8.80;1.00;;;;;;7364148;19;20483;-71
2023/12/23 08:58:36;;;;;;;0.40;0.30;;;8.90;1.00;;;;;;7371175;19;20002;-71
2023/12/23 09:01:06;;;;;;;0.88;0.30;;;8.90;1.00;;;;;;7371044;19;20014;-70
2023/12/23 09:03:36;;;;;;;0.45;0.30;;;8.90;1.00;;;;;;7378173;19;20031;-69
2023/12/23 09:06:10;;;;;;;2.58;1.00;;;8.90;1.00;;;;;;7378618;19;20014;-70
2023/12/23 09:08:43;;;;;;;0.43;0.22;;;8.90;1.00;;;;;;7374371;19;20018;-69
2023/12/23 09:11:13;;;;;;;0.30;0.30;;;8.90;1.00;;;;;;7376369;19;20010;-70
2023/12/23 09:13:43;;;;;;;1.17;0.40;;;8.90;1.00;;;;;;7374980;19;20467;-69
2023/12/23 09:16:13;;;;;;;1.02;0.30;;;9.00;1.00;;;;;;7376346;19;20428;-69
2023/12/23 09:18:43;;;;;;;0.40;0.30;;;9.00;1.00;;;;;;7375072;19;20011;-70
2023/12/23 09:21:13;;;;;;;0.38;0.22;;;9.00;1.00;;;;;;7377211;19;20007;-70
2023/12/23 09:23:46;;;;;;;0.30;0.20;;;9.00;1.00;;;;;;7376476;19;20010;-69
2023/12/23 09:26:16;;;;;;;1.92;0.40;;;9.00;1.00;;;;;;7376367;19;20014;-72
2023/12/23 09:28:46;;;;;;;0.32;0.20;;;9.00;1.00;;;;;;7375929;19;20133;-70
2023/12/23 09:31:16;;;;;;;0.55;0.30;;;8.90;1.00;;;;;;7376689;19;20035;-70
2023/12/23 09:33:46;;;;;;;0.40;0.22;;;9.00;1.00;;;;;;7377085;19;20065;-70
2023/12/23 09:36:16;;;;;;;0.38;0.13;;;8.90;1.00;;;;;;7376201;19;20862;-70
2023/12/23 09:38:49;;;;;;;0.75;0.30;;;8.90;1.00;;;;;;7375118;19;20823;-69
2023/12/23 09:41:19;;;;;;;0.40;0.20;;;9.00;1.00;;;;;;7375767;19;20031;-70
2023/12/23 09:43:52;;;;;;;0.60;0.20;;;8.90;1.00;;;;;;7375174;19;20014;-69
2023/12/23 09:46:22;;;;;;;0.40;0.30;;;8.90;1.00;;;;;;7376695;19;20014;-72
2023/12/23 09:48:53;;;;;;;0.85;0.17;;;8.90;1.00;;;;;;7376536;19;20006;-69
2023/12/23 09:51:28;;;;;;;0.90;0.40;;;8.90;1.00;;;;;;7379824;19;20135;-70
2023/12/23 09:54:05;;;;;;;0.30;0.20;;;8.90;1.00;;;;;;7371109;19;20003;-70
2023/12/23 09:56:38;;;;;;;0.22;0.20;;;8.90;1.00;;;;;;7375223;19;21300;-70
2023/12/23 09:59:08;;;;;;;0.30;0.15;;;9.00;1.00;;;;;;7373778;19;20034;-70
2023/12/23 10:01:38;;;;;;;0.55;0.30;;;8.90;1.00;;;;;;7374259;19;20009;-69
2023/12/23 10:04:09;;;;;;;0.90;0.22;;;9.00;1.00;;;;;;7375285;19;20011;-69
2023/12/23 10:06:39;;;;;;;0.28;0.20;;;9.00;1.00;;;;;;7375366;19;20089;-70
2023/12/23 10:09:14;;;;;;;0.70;0.30;;;9.00;1.00;;;;;;7374432;19;20477;-70
2023/12/23 10:11:44;;;;;;;0.40;0.40;;;9.00;1.00;;;;;;7377244;19;20162;-70
2023/12/23 10:14:15;;;;;;;0.73;0.20;;;9.00;1.00;;;;;;7374666;19;20148;-70
2023/12/23 10:16:45;;;;;;;2.10;0.30;;;9.00;1.00;;;;;;7383453;19;21521;-70
2023/12/23 10:19:17;;;;;;;0.20;0.10;;;9.00;1.00;;;;;;7378989;19;20014;-70
2023/12/23 10:21:47;;;;;;;0.75;0.20;;;9.00;1.00;;;;;;7382857;19;20048;-70
2023/12/23 10:24:20;;;;;;;0.25;0.20;;;9.00;1.00;;;;;;7381765;19;20018;-72
2023/12/23 10:26:50;;;;;;;0.20;0.17;;;9.00;1.00;;;;;;7381747;19;20031;-70
2023/12/23 10:29:24;;;;;;;0.60;0.10;;;9.00;1.00;;;;;;7383398;19;20014;-71
2023/12/23 10:32:04;;;;;;;0.63;0.30;;;9.10;1.00;;;;;;7379966;19;20117;-71
2023/12/23 10:34:44;;;;;;;0.50;0.30;;;9.10;1.00;;;;;;7381969;19;20015;-70
2023/12/23 10:37:15;;;;;;;0.88;0.47;;;9.10;1.00;;;;;;7381272;19;20447;-70
2023/12/23 10:39:53;;;;;;;0.80;0.50;;;9.10;1.00;;;;;;7382291;19;20014;-69
2023/12/23 10:42:26;;;;;;;0.80;0.40;;;9.10;1.00;;;;;;7383695;19;20039;-70
2023/12/23 10:44:56;;;;;;;0.30;0.10;;;9.10;1.00;;;;;;7380008;19;20050;-70
2023/12/23 10:47:28;;;;;;;0.60;0.38;;;9.10;1.00;;;;;;7379843;19;20017;-69
2023/12/23 10:49:59;;;;;;;0.65;0.35;;;9.10;1.00;;;;;;7381425;19;20006;-70
2023/12/23 10:52:29;;;;;;;0.63;0.30;;;9.10;1.00;;;;;;7381430;19;20014;-70
2023/12/23 10:55:04;;;;;;;1.30;0.50;;;9.10;1.00;;;;;;7380686;19;20006;-69
2023/12/23 10:57:34;;;;;;;0.20;0.20;;;9.10;1.00;;;;;;7380166;19;20011;-69
2023/12/23 11:00:05;;;;;;;0.45;0.30;;;9.10;1.00;;;;;;7381248;19;20029;-70
2023/12/23 11:02:38;;;;;;;0.98;0.40;;;9.10;1.00;;;;;;7379977;19;20966;-71
2023/12/23 11:05:11;;;;;;;0.20;0.17;;;9.10;1.00;;;;;;7381693;19;20420;-70
2023/12/23 11:07:45;;;;;;;0.47;0.20;;;9.00;1.00;;;;;;7379709;19;20007;-70
2023/12/23 11:10:19;;;;;;;0.60;0.20;;;9.10;1.00;;;;;;7380185;19;20007;-71
2023/12/23 11:12:50;;;;;;;0.40;0.30;;;9.10;1.00;;;;;;7379603;19;20382;-71
2023/12/23 11:15:20;;;;;;;0.50;0.28;;;9.10;1.00;;;;;;7379176;19;20018;-70
2023/12/23 11:17:51;;;;;;;0.85;0.20;;;9.10;1.00;;;;;;7379679;19;20032;-70
2023/12/23 11:20:47;;;;;;;0.52;0.20;;;9.00;1.00;;;;;;7380603;19;20030;-70
2023/12/23 11:23:33;;;;;;;0.25;0.20;;;9.00;1.00;;;;;;6867843;19;2004076;-71
2023/12/23 11:26:06;;;;;;;0.68;0.30;;;9.10;1.00;;;;;;7376792;19;20503;-70
2023/12/23 11:28:38;;;;;;;0.30;0.28;;;9.10;1.00;;;;;;7378399;19;20098;-71
2023/12/23 11:31:08;;;;;;;1.55;0.20;;;9.10;1.00;;;;;;7381221;19;20378;-70
2023/12/23 11:33:39;;;;;;;0.63;0.40;;;9.10;1.00;;;;;;7380353;19;20097;-70
2023/12/23 11:36:10;;;;;;;0.20;0.17;;;9.20;1.00;;;;;;7379303;19;20482;-70
2023/12/23 11:38:51;;;;;;;0.45;0.40;;;9.20;1.00;;;;;;7379261;19;20014;-70
2023/12/23 11:41:24;;;;;;;0.82;0.50;;;9.20;1.00;;;;;;7381880;19;20049;-70
2023/12/23 11:43:55;;;;;;;0.45;0.30;;;9.20;1.00;;;;;;7378149;19;20003;-70
2023/12/23 11:46:27;;;;;;;1.50;0.30;;;9.20;1.00;;;;;;7378778;19;20073;-71
2023/12/23 11:48:59;;;;;;;0.43;0.20;;;9.10;1.00;;;;;;7376149;19;20502;-71
2023/12/23 11:51:29;;;;;;;1.35;0.50;;;9.10;1.00;;;;;;7380413;19;20086;-70
2023/12/23 11:54:00;;;;;;;0.93;0.20;;;9.00;1.00;;;;;;7376786;19;20014;-71
2023/12/23 11:56:37;;;;;;;;;;;9.00;1.00;;;;;;7366097;19;20029;-74
2023/12/23 11:59:08;;;;;;;0.70;0.30;;;9.00;1.00;;;;;;7373547;19;19910;-71
2023/12/23 12:01:39;;;;;;;0.63;0.40;;;9.00;1.00;;;;;;7374026;19;20035;-71
2023/12/23 12:04:11;;;;;;;0.25;0.20;;;9.00;1.00;;;;;;7372347;19;20018;-71
2023/12/23 12:06:42;;;;;;;0.43;0.13;;;9.10;1.00;;;;;;7370426;19;20011;-72
2023/12/23 12:09:14;;;;;;;0.30;0.20;;;9.10;1.00;;;;;;7373682;19;20106;-72
2023/12/23 12:11:48;;;;;;;0.45;0.20;;;9.10;1.00;;;;;;7370377;19;20532;-71
2023/12/23 12:14:18;;;;;;;1.13;0.32;;;9.10;1.00;;;;;;7368843;19;20006;-72
2023/12/23 12:16:50;;;;;;;0.55;0.35;;;9.10;1.00;;;;;;7371182;19;20014;-72
2023/12/23 12:19:21;;;;;;;0.60;0.30;;;9.10;1.00;;;;;;7371629;19;20043;-71
2023/12/23 12:21:52;;;;;;;1.00;0.47;;;9.10;1.00;;;;;;7369372;19;20528;-72
2023/12/23 12:24:23;;;;;;;0.43;0.30;;;9.10;1.00;;;;;;7371906;19;20018;-72
2023/12/23 12:26:59;;;;;;;0.90;0.40;;;9.00;1.00;;;;;;7369919;19;21141;-72
2023/12/23 12:29:31;;;;;;;0.40;0.20;;;9.00;1.00;;;;;;7368158;19;20020;-72
2023/12/23 12:32:03;;;;;;;0.40;0.30;;;9.00;1.00;;;;;;7374459;19;20010;-71
2023/12/23 12:34:33;;;;;;;1.17;0.40;;;9.00;1.00;;;;;;7372101;19;20049;-71
2023/12/23 12:37:04;;;;;;;0.75;0.30;;;9.00;1.00;;;;;;7343956;19;20015;-72
2023/12/23 12:39:35;;;;;;;0.35;0.30;;;9.10;1.00;;;;;;7360541;19;20041;-71
2023/12/23 12:42:09;;;;;;;1.40;0.40;;;9.00;1.00;;;;;;7367277;19;20025;-72
2023/12/23 12:44:40;;;;;;;0.70;0.40;;;9.00;1.00;;;;;;7362306;19;20010;-71
2023/12/23 12:47:10;;;;;;;0.40;0.30;;;8.90;1.00;;;;;;7372068;19;20018;-72
2023/12/23 12:49:47;;;;;;;0.60;0.30;;;9.00;1.00;;;;;;7363982;19;20049;-72
2023/12/23 12:52:36;;;;;;;0.60;0.25;;;8.90;1.00;;;;;;7366664;19;20014;-70
2023/12/23 12:55:09;;;;;;;1.48;0.22;;;8.90;1.00;;;;;;7368227;19;20010;-72
2023/12/23 12:57:43;;;;;;;0.30;0.20;;;8.90;1.00;;;;;;7373670;19;20067;-73
2023/12/23 13:00:15;;;;;;;0.35;0.20;;;8.90;1.00;;;;;;7366216;19;20013;-72
2023/12/23 13:02:47;;;;;;;0.50;0.30;;;8.90;1.00;;;;;;7364902;19;20046;-72
2023/12/23 13:05:19;;;;;;;5.22;0.30;;;9.00;1.00;;;;;;7362601;19;20015;-72
2023/12/23 13:07:52;;;;;;;0.98;0.20;;;8.90;1.00;;;;;;7367226;19;20035;-71
2023/12/23 13:10:23;;;;;;;0.47;0.20;;;8.90;1.00;;;;;;7367357;19;20018;-72
2023/12/23 13:12:56;;;;;;;0.20;0.20;;;8.90;1.00;;;;;;7365199;19;20333;-71
2023/12/23 13:15:27;;;;;;;1.33;0.22;;;8.90;1.00;;;;;;7364799;19;20096;-72
2023/12/23 13:17:59;;;;;;;1.27;0.20;;;9.00;1.00;;;;;;7370845;19;20010;-72
2023/12/23 13:20:30;;;;;;;0.40;0.20;;;9.00;1.00;;;;;;7367050;19;20014;-72
2023/12/23 13:23:02;;;;;;;0.32;0.30;;;9.00;1.00;;;;;;7371520;19;20467;-72
2023/12/23 13:25:33;;;;;;;0.30;0.20;;;9.00;1.00;;;;;;7368690;19;20816;-72
2023/12/23 13:28:07;;;;;;;0.85;0.30;;;9.00;1.00;;;;;;7371136;19;20014;-71
2023/12/23 13:30:39;;;;;;;0.70;0.28;;;9.10;1.00;;;;;;7362176;19;20022;-70